Time;durP1;ratioP1;P1;durP2;ratioP2;P2;SDS_P1;SDS_P2;PMS_P1;PMS_P2;Temp;Humidity;BMP_temperature;BMP_pressure;BME280_temperature;BME280_humidity;BME280_pressure;Samples;Min_cycle;Max_cycle;Signal;HPM_P1;HPM_P2
2022/04/23 00:03:34;;;;;;;31.48;19.00;;;;;;;6.43;89.33;98231.34;3992586;87;21094;-91
2022/04/23 00:09:36;;;;;;;29.02;18.73;;;;;;;6.42;89.24;98231.14;3997273;88;22042;-89
2022/04/23 00:15:37;;;;;;;28.77;18.42;;;;;;;6.40;89.29;98233.63;3990115;88;21244;-89
2022/04/23 00:21:39;;;;;;;29.70;19.65;;;;;;;6.41;89.27;98231.71;3984047;88;21733;-89
2022/04/23 00:27:40;;;;;;;28.52;18.50;;;;;;;6.39;89.22;98226.64;3979737;88;21123;-91
2022/04/23 00:33:42;;;;;;;30.32;19.12;;;;;;;6.38;89.17;98216.92;3990625;88;21806;-90
2022/04/23 00:39:44;;;;;;;30.45;18.75;;;;;;;6.35;89.19;98211.43;3986064;88;21996;-88
2022/04/23 00:45:46;;;;;;;28.23;19.42;;;;;;;6.31;89.18;98211.97;3988453;87;21678;-89
2022/04/23 00:51:49;;;;;;;33.25;20.90;;;;;;;6.29;89.21;98204.17;3989968;88;21117;-88
2022/04/23 00:57:51;;;;;;;30.37;19.50;;;;;;;6.26;89.19;98199.44;3987226;88;21145;-90
2022/04/23 01:03:53;;;;;;;35.17;20.43;;;;;;;6.24;89.14;98212.63;3987214;88;21132;-88
2022/04/23 01:09:55;;;;;;;34.23;20.92;;;;;;;6.23;89.21;98207.56;3988265;87;21143;-91
2022/04/23 01:16:07;;;;;;;29.07;18.62;;;;;;;6.20;89.14;98217.80;3993365;87;21169;-90
2022/04/23 01:22:12;;;;;;;29.72;18.85;;;;;;;6.17;89.12;98217.95;3982056;87;21983;-88
2022/04/23 01:28:14;;;;;;;33.02;18.95;;;;;;;6.13;89.11;98221.76;4029898;86;21139;-90
2022/04/23 01:34:15;;;;;;;31.02;19.60;;;;;;;6.08;89.15;98213.34;3938184;88;21090;-88
2022/04/23 01:40:17;;;;;;;28.27;18.50;;;;;;;6.03;89.17;98219.08;4030416;86;21150;-88
2022/04/23 01:46:18;;;;;;;29.12;19.10;;;;;;;5.99;89.11;98216.09;4040120;86;21122;-88
2022/04/23 01:52:20;;;;;;;31.85;17.80;;;;;;;5.98;89.08;98218.61;4038339;86;21083;-90
2022/04/23 01:58:22;;;;;;;27.85;18.25;;;;;;;5.93;89.00;98210.76;4036497;86;21082;-88
2022/04/23 02:04:24;;;;;;;25.97;17.20;;;;;;;5.86;89.05;98218.21;3949460;88;21430;-88
2022/04/23 02:10:25;;;;;;;28.38;17.15;;;;;;;5.79;89.06;98218.08;3995139;87;21143;-89
2022/04/23 02:16:26;;;;;;;29.90;18.50;;;;;;;5.75;89.04;98216.41;4060087;86;21109;-93
2022/04/23 02:22:28;;;;;;;28.32;17.15;;;;;;;5.66;88.94;98215.31;3956515;87;21089;-90
2022/04/23 02:28:29;;;;;;;26.55;17.37;;;;;;;5.59;88.95;98219.84;3943004;88;21211;-89
2022/04/23 02:34:31;;;;;;;32.88;18.98;;;;;;;5.54;88.94;98218.77;3976844;88;21065;-88
2022/04/23 02:40:34;;;;;;;31.10;17.82;;;;;;;5.46;88.95;98223.84;3940721;88;21362;-88
2022/04/23 02:46:36;;;;;;;27.82;18.62;;;;;;;5.39;88.88;98224.50;3935665;88;22097;-93
2022/04/23 02:52:42;;;;;;;29.98;17.85;;;;;;;5.32;88.82;98224.38;3931985;89;21125;-89
2022/04/23 02:58:44;;;;;;;29.18;17.32;;;;;;;5.25;88.79;98235.64;3956358;88;21054;-90
2022/04/23 03:04:46;;;;;;;24.85;16.35;;;;;;;5.17;88.83;98243.45;3966157;87;21124;-89
2022/04/23 03:10:47;;;;;;;28.47;16.95;;;;;;;5.12;88.90;98247.80;3949563;88;21226;-94
2022/04/23 03:16:49;;;;;;;26.65;16.85;;;;;;;5.07;88.86;98250.23;3959312;88;21603;-89
2022/04/23 03:22:50;;;;;;;25.95;16.73;;;;;;;4.96;88.83;98255.20;3924906;88;21109;-92
2022/04/23 03:28:52;;;;;;;26.50;16.52;;;;;;;4.91;89.01;98266.33;3923600;89;21056;-86
2022/04/23 03:34:55;;;;;;;27.80;16.70;;;;;;;4.87;89.00;98256.75;3931174;88;21141;-90
2022/04/23 03:40:58;;;;;;;21.50;14.45;;;;;;;4.82;88.83;98267.31;3924372;89;21068;-92
2022/04/23 03:47:03;;;;;;;26.68;18.25;;;;;;;4.77;89.24;98265.46;3925035;89;21167;-91
2022/04/23 03:53:05;;;;;;;25.02;15.95;;;;;;;4.74;89.22;98271.59;3929275;88;21049;-90
2022/04/23 03:59:07;;;;;;;24.30;15.85;;;;;;;4.64;89.08;98272.13;3923345;89;21097;-90
2022/04/23 04:05:10;;;;;;;25.40;15.85;;;;;;;4.56;89.44;98272.54;3929026;88;21069;-89
2022/04/23 04:11:11;;;;;;;25.50;17.07;;;;;;;4.52;89.41;98277.11;3928427;88;21071;-88
2022/04/23 04:17:15;;;;;;;29.75;18.25;;;;;;;4.50;89.62;98274.52;3934793;88;21085;-87
2022/04/23 04:23:17;;;;;;;26.93;17.92;;;;;;;4.42;89.06;98280.34;3938149;87;21608;-94
2022/04/23 04:29:19;;;;;;;24.85;16.65;;;;;;;4.32;89.47;98278.74;3936298;88;21139;-91
2022/04/23 04:35:20;;;;;;;30.60;19.12;;;;;;;4.33;89.54;98285.17;3926406;89;21703;-88
2022/04/23 04:41:22;;;;;;;29.05;16.73;;;;;;;4.36;89.88;98288.53;3924297;89;21094;-91
2022/04/23 04:47:24;;;;;;;23.30;15.13;;;;;;;4.45;90.46;98290.48;3929430;89;21074;-89
2022/04/23 04:53:25;;;;;;;26.50;16.75;;;;;;;4.58;90.67;98289.25;3928940;89;21132;-87
2022/04/23 04:59:26;;;;;;;27.82;17.98;;;;;;;4.79;90.76;98286.23;3930029;89;22378;-88
2022/04/23 05:05:28;;;;;;;38.83;21.85;;;;;;;5.00;90.69;98292.67;3926688;88;21241;-87
2022/04/23 05:11:30;;;;;;;29.63;18.55;;;;;;;5.19;90.44;98304.34;3927865;89;21228;-91
2022/04/23 05:17:31;;;;;;;31.33;17.80;;;;;;;5.30;90.18;98305.91;3960559;88;21072;-88
2022/04/23 05:23:33;;;;;;;28.23;17.65;;;;;;;5.47;90.14;98309.55;3956890;87;22166;-90
2022/04/23 05:29:36;;;;;;;29.07;18.73;;;;;;;5.69;89.70;98304.76;3958893;87;21283;-89
2022/04/23 05:35:38;;;;;;;26.48;17.12;;;;;;;5.90;89.67;98311.39;4056369;86;21110;-87
2022/04/23 05:41:39;;;;;;;28.57;17.20;;;;;;;6.04;88.99;98307.61;4055536;86;21088;-89
2022/04/23 05:47:42;;;;;;;26.45;16.45;;;;;;;6.18;88.88;98309.78;4049571;86;21655;-86
2022/04/23 05:53:43;;;;;;;25.65;17.00;;;;;;;6.29;88.73;98308.83;4043515;86;21655;-91
2022/04/23 05:59:44;;;;;;;24.00;15.70;;;;;;;6.23;88.58;98308.13;4044125;86;21726;-88
2022/04/23 06:05:46;;;;;;;26.52;16.45;;;;;;;6.33;88.42;98306.14;4052382;86;21017;-89
2022/04/23 06:11:48;;;;;;;30.82;19.27;;;;;;;6.85;88.86;98299.39;4040915;86;21689;-88
2022/04/23 06:17:49;;;;;;;25.17;18.48;;;;;;;7.40;87.49;98305.41;3959347;88;21152;-88
2022/04/23 06:23:50;;;;;;;22.65;15.93;;;;;;;7.98;87.44;98307.03;3947542;87;21136;-87
2022/04/23 06:29:53;;;;;;;26.52;16.52;;;;;;;8.23;86.47;98318.20;3920988;89;21664;-88
2022/04/23 06:35:55;;;;;;;22.80;15.68;;;;;;;8.42;86.56;98315.27;3991538;87;21116;-88
2022/04/23 06:41:58;;;;;;;20.05;15.00;;;;;;;8.76;84.96;98310.67;3991535;87;21054;-91
2022/04/23 06:48:04;;;;;;;21.48;15.38;;;;;;;8.94;84.94;98306.70;3994497;87;22025;-89
2022/04/23 06:54:08;;;;;;;22.13;15.33;;;;;;;9.31;84.53;98310.83;3988686;87;21168;-90
2022/04/23 07:00:11;;;;;;;22.60;14.98;;;;;;;9.57;83.64;98306.26;3991776;87;21699;-90
2022/04/23 07:06:13;;;;;;;18.95;13.38;;;;;;;9.75;84.07;98311.98;3996747;87;21578;-88
2022/04/23 07:12:15;;;;;;;22.30;15.90;;;;;;;9.87;82.87;98310.25;3992988;87;22362;-89
2022/04/23 07:18:16;;;;;;;16.35;11.90;;;;;;;9.91;78.12;98304.80;3998248;87;21117;-90
2022/04/23 07:24:17;;;;;;;16.27;11.48;;;;;;;9.86;80.47;98303.23;3994014;87;21207;-88
2022/04/23 07:30:19;;;;;;;17.20;12.10;;;;;;;9.99;80.87;98303.66;3990605;88;21080;-87
2022/04/23 07:42:40;;;;;;;14.47;9.43;;;;;;;10.41;79.17;98300.44;3976717;87;21134;-88
2022/04/23 07:48:41;;;;;;;10.23;8.20;;;;;;;10.75;76.66;98300.81;4056300;86;21087;-92
2022/04/23 07:54:43;;;;;;;10.03;7.85;;;;;;;11.75;77.57;98293.32;4054197;86;21116;-88
2022/04/23 08:00:45;;;;;;;9.58;8.00;;;;;;;12.38;75.46;98297.06;3999876;87;21660;-89
2022/04/23 08:06:47;;;;;;;8.78;6.62;;;;;;;13.16;74.55;98296.61;4047483;86;22092;-89
2022/04/23 08:12:48;;;;;;;7.97;5.83;;;;;;;12.54;72.84;98295.36;4060196;86;21111;-89
2022/04/23 08:18:50;;;;;;;8.93;6.67;;;;;;;12.16;72.08;98282.72;4056484;86;21756;-90
2022/04/23 08:24:52;;;;;;;10.85;7.00;;;;;;;12.06;72.21;98280.81;4039422;86;22129;-90
2022/04/23 08:30:53;;;;;;;7.60;6.17;;;;;;;12.51;70.24;98278.33;4045284;86;21342;-91
2022/04/23 08:36:55;;;;;;;6.42;5.67;;;;;;;12.19;70.38;98279.17;4032270;86;21067;-88
2022/04/23 08:42:57;;;;;;;5.20;4.33;;;;;;;12.31;69.44;98272.41;3999529;86;21172;-90
2022/04/23 08:49:13;;;;;;;6.62;4.83;;;;;;;13.00;68.47;98266.73;3994665;87;22027;-89
2022/04/23 08:55:16;;;;;;;5.25;4.42;;;;;;;13.43;62.07;98263.72;3980253;88;21291;-88
2022/04/23 09:01:18;;;;;;;5.83;4.42;;;;;;;13.58;66.68;98252.13;3988121;88;21055;-91
2022/04/23 09:07:26;;;;;;;6.12;4.15;;;;;;;13.76;62.58;98254.07;3997191;87;21610;-86
2022/04/23 09:13:31;;;;;;;3.65;3.27;;;;;;;14.85;64.04;98252.39;3987704;87;21058;-88
2022/04/23 09:25:53;;;;;;;4.60;3.83;;;;;;;15.39;62.01;98246.84;3937286;89;21132;-90
2022/04/23 09:32:07;;;;;;;6.12;4.35;;;;;;;14.77;61.37;98244.68;3934924;89;21095;-88
2022/04/23 09:38:18;;;;;;;4.22;3.77;;;;;;;15.19;60.84;98246.03;3936395;89;21072;-87
2022/04/23 09:44:23;;;;;;;5.67;4.05;;;;;;;16.58;58.14;98228.24;3936280;89;21111;-88
2022/04/23 09:50:28;;;;;;;4.50;4.10;;;;;;;17.66;58.26;98234.02;3907707;89;21627;-87
2022/04/23 09:56:28;;;;;;;3.90;3.40;;;;;;;18.04;54.45;98232.84;3932548;89;21111;-89
2022/04/23 10:02:30;;;;;;;7.78;4.83;;;;;;;17.75;54.96;98228.01;3933879;89;21634;-88
2022/04/23 10:08:35;;;;;;;3.45;3.00;;;;;;;18.87;52.86;98227.78;3914612;89;21086;-87
2022/04/23 10:14:41;;;;;;;3.50;3.17;;;;;;;18.59;53.49;98220.42;3936095;89;21075;-87
2022/04/23 10:21:02;;;;;;;5.67;3.45;;;;;;;18.85;52.93;98221.15;3934749;88;21503;-88
2022/04/23 10:27:09;;;;;;;4.10;3.30;;;;;;;18.54;49.03;98221.77;4031443;87;21078;-92
2022/04/23 10:33:28;;;;;;;3.08;2.58;;;;;;;19.19;48.07;98225.30;4000481;87;21134;-91
2022/04/23 10:39:30;;;;;;;4.28;2.62;;;;;;;19.73;49.86;98222.95;4010549;86;22242;-89
2022/04/23 10:45:34;;;;;;;4.90;3.27;;;;;;;20.09;48.11;98215.55;3994047;87;22279;-89
2022/04/23 10:51:54;;;;;;;2.95;2.58;;;;;;;20.57;47.57;98216.84;3969257;87;21131;-87
2022/04/23 10:58:01;;;;;;;3.42;3.05;;;;;;;20.17;46.76;98211.30;3992992;87;21640;-89
2022/04/23 11:04:10;;;;;;;3.67;3.02;;;;;;;18.91;46.52;98216.58;3986668;87;21030;-88
2022/04/23 11:16:28;;;;;;;4.85;3.87;;;;;;;18.23;45.39;98202.77;4020786;87;21577;-90
2022/04/23 11:22:29;;;;;;;4.30;3.55;;;;;;;19.01;44.46;98202.36;3995946;87;21651;-89
2022/04/23 11:28:30;;;;;;;4.08;3.67;;;;;;;19.75;39.31;98213.52;4014525;87;21676;-88
2022/04/23 11:34:38;;;;;;;3.60;3.10;;;;;;;19.72;41.42;98202.72;4000771;87;21627;-89
2022/04/23 11:40:35;;;;;;;4.90;3.33;;;;;;;19.40;42.63;98199.59;3997782;87;21632;-87
2022/04/23 11:46:48;;;;;;;3.90;3.42;;;;;;;19.74;42.39;98199.49;4001810;87;21143;-89
2022/04/23 11:53:02;;;;;;;3.62;3.33;;;;;;;20.17;40.85;98200.19;4006397;87;21127;-88
2022/04/23 11:59:09;;;;;;;3.45;3.15;;;;;;;19.69;41.14;98199.47;4006511;87;21117;-89
2022/04/23 12:05:10;;;;;;;5.45;3.67;;;;;;;19.36;40.47;98194.77;4005861;87;21675;-89
2022/04/23 12:11:27;;;;;;;5.95;2.90;;;;;;;18.49;40.35;98191.87;3999501;87;21067;-88
2022/04/23 12:17:32;;;;;;;4.05;3.65;;;;;;;19.02;41.02;98182.31;4006508;87;21198;-88
2022/04/23 12:23:43;;;;;;;4.97;3.30;;;;;;;19.44;40.79;98182.97;4007825;87;21103;-88
2022/04/23 12:42:35;;;;;;;6.00;3.60;;;;;;;17.89;40.88;98180.52;4016917;87;21036;-87
2022/04/23 12:49:00;;;;;;;5.58;3.80;;;;;;;17.36;41.54;98170.23;4021455;87;21118;-89
2022/04/23 12:55:25;;;;;;;7.10;4.67;;;;;;;17.52;40.90;98167.42;4025382;87;21351;-87
2022/04/23 13:01:28;;;;;;;4.70;4.20;;;;;;;17.50;41.12;98156.02;4022257;87;21116;-93
2022/04/23 13:13:49;;;;;;;4.67;3.60;;;;;;;18.40;40.51;98157.74;4022863;87;22155;-87
2022/04/23 13:19:52;;;;;;;4.47;3.25;;;;;;;17.97;39.95;98140.31;4024188;87;21065;-90
2022/04/23 13:25:57;;;;;;;6.28;3.70;;;;;;;17.51;40.57;98149.87;4018077;87;21101;-91
2022/04/23 13:31:57;;;;;;;7.50;4.55;;;;;;;17.96;40.31;98141.52;4026379;87;21219;-88
2022/04/23 13:37:58;;;;;;;7.45;3.98;;;;;;;17.59;40.10;98139.52;4019573;87;21560;-88
2022/04/23 13:44:02;;;;;;;5.08;3.55;;;;;;;18.03;40.32;98134.37;4019252;87;21096;-88
2022/04/23 13:50:05;;;;;;;3.70;3.33;;;;;;;18.61;40.81;98131.46;4045915;86;21632;-87
2022/04/23 13:56:06;;;;;;;13.08;5.65;;;;;;;18.35;39.00;98131.95;4001331;87;21077;-89
2022/04/23 14:14:48;;;;;;;5.08;4.58;;;;;;;16.21;39.80;98132.06;4029838;86;21458;-88
2022/04/23 14:20:50;;;;;;;4.65;4.25;;;;;;;16.22;40.63;98132.84;4024173;87;21157;-90
2022/04/23 14:26:51;;;;;;;9.63;4.45;;;;;;;16.48;40.91;98134.56;4027685;87;21198;-89
2022/04/23 14:32:53;;;;;;;6.42;4.85;;;;;;;16.33;41.01;98145.19;4023438;86;21137;-89
2022/04/23 14:38:55;;;;;;;6.85;4.50;;;;;;;16.63;40.89;98141.28;4058562;86;21076;-93
2022/04/23 14:44:57;;;;;;;6.03;4.62;;;;;;;17.00;40.63;98142.03;4028821;86;21631;-90
2022/04/23 14:57:20;;;;;;;6.25;4.83;;;;;;;16.09;40.89;98154.06;4032992;86;21045;-89
2022/04/23 15:03:22;;;;;;;6.22;4.72;;;;;;;15.74;41.50;98153.53;4023855;86;21114;-91
2022/04/23 15:09:23;;;;;;;5.08;4.50;;;;;;;15.84;41.70;98157.42;4032571;87;21090;-88
2022/04/23 15:15:25;;;;;;;5.35;3.83;;;;;;;15.75;42.17;98160.00;4025596;86;21096;-91
2022/04/23 15:21:26;;;;;;;8.50;5.05;;;;;;;15.68;42.97;98155.41;4028750;86;21120;-91
2022/04/23 15:27:30;;;;;;;6.85;4.28;;;;;;;15.80;43.11;98164.23;4020700;86;21203;-91
2022/04/23 15:33:35;;;;;;;5.20;4.20;;;;;;;15.68;43.29;98171.18;4015902;87;21122;-89
2022/04/23 15:39:37;;;;;;;6.67;4.35;;;;;;;15.37;43.80;98176.76;4025085;87;21076;-88
2022/04/23 15:45:38;;;;;;;4.72;3.98;;;;;;;15.36;44.34;98173.21;4025677;87;21106;-89
2022/04/23 15:51:42;;;;;;;5.90;4.50;;;;;;;15.17;44.59;98171.86;4025456;87;22045;-87
2022/04/23 15:57:43;;;;;;;5.62;4.78;;;;;;;15.11;44.88;98176.31;4020616;87;21072;-90
2022/04/23 16:03:44;;;;;;;5.03;3.95;;;;;;;14.89;45.09;98168.28;4023753;87;21168;-88
2022/04/23 16:09:46;;;;;;;6.28;4.78;;;;;;;14.81;45.28;98170.41;4017567;87;21099;-86
2022/04/23 16:15:48;;;;;;;5.33;4.20;;;;;;;14.73;45.54;98171.73;4024960;87;21171;-88
2022/04/23 16:21:49;;;;;;;5.17;4.28;;;;;;;14.63;45.80;98173.28;4027594;86;21108;-87
2022/04/23 16:27:50;;;;;;;6.65;4.70;;;;;;;14.56;46.21;98168.70;3879707;84;9999943;-88
2022/04/23 16:33:52;;;;;;;7.92;4.80;;;;;;;14.34;46.37;98180.48;3987629;87;21428;-89
2022/04/23 16:52:34;;;;;;;5.42;4.03;;;;;;;13.96;46.92;98184.02;3991765;87;21145;-89
2022/04/23 16:58:35;;;;;;;9.33;5.33;;;;;;;13.89;47.09;98186.89;3987486;88;21149;-89
2022/04/23 17:04:37;;;;;;;6.22;4.97;;;;;;;13.76;47.34;98186.69;3992807;87;21057;-88
2022/04/23 17:10:40;;;;;;;7.47;4.12;;;;;;;13.59;47.70;98191.05;3989900;87;21568;-89
2022/04/23 17:16:46;;;;;;;8.48;5.03;;;;;;;13.37;47.81;98196.64;3984908;88;21722;-88
2022/04/23 17:22:48;;;;;;;6.35;4.70;;;;;;;13.16;47.99;98205.92;3987853;87;21072;-88
2022/04/23 17:28:49;;;;;;;6.70;4.50;;;;;;;12.94;48.22;98207.90;4038857;87;21688;-90
2022/04/23 17:34:51;;;;;;;30.30;15.90;;;;;;;12.75;48.53;98216.14;4001445;87;21136;-88
2022/04/23 17:40:52;;;;;;;17.10;9.38;;;;;;;12.51;48.89;98221.29;3989586;87;21624;-90
2022/04/23 17:46:54;;;;;;;59.70;30.77;;;;;;;12.26;49.24;98217.36;3986537;88;21650;-89
2022/04/23 17:52:55;;;;;;;19.65;11.73;;;;;;;12.03;49.92;98225.96;3978531;88;21710;-87
2022/04/23 17:58:58;;;;;;;16.75;11.30;;;;;;;11.69;50.26;98227.75;3987155;88;21144;-88
2022/04/23 18:11:19;;;;;;;17.55;11.83;;;;;;;11.27;51.03;98238.88;4055931;86;21146;-91
2022/04/23 18:17:22;;;;;;;17.70;12.55;;;;;;;11.03;51.54;98241.31;4022307;87;21091;-91
2022/04/23 18:23:23;;;;;;;19.00;12.13;;;;;;;10.72;52.05;98246.85;4029456;87;21156;-89
2022/04/23 18:29:26;;;;;;;35.45;17.02;;;;;;;10.43;52.64;98243.95;3987950;87;21097;-87
2022/04/23 18:35:28;;;;;;;26.30;15.38;;;;;;;10.18;53.21;98250.01;3988966;88;21097;-86
2022/04/23 18:41:31;;;;;;;28.87;17.70;;;;;;;9.95;53.72;98245.44;3988572;87;21077;-89
2022/04/23 18:47:33;;;;;;;44.93;25.52;;;;;;;9.69;54.29;98242.48;3984609;87;21097;-89
2022/04/23 18:53:35;;;;;;;43.45;23.47;;;;;;;9.45;54.80;98237.13;4014726;87;21101;-88
2022/04/23 18:59:37;;;;;;;46.08;26.12;;;;;;;9.44;55.22;98232.81;3975848;87;21152;-89
2022/04/23 19:05:38;;;;;;;49.18;28.52;;;;;;;9.34;55.69;98232.79;3978980;88;21108;-88
2022/04/23 19:11:42;;;;;;;52.43;30.77;;;;;;;9.02;56.40;98230.52;3975660;88;21160;-90
2022/04/23 19:17:45;;;;;;;56.13;33.23;;;;;;;8.66;56.83;98228.14;3975724;87;21794;-88
2022/04/23 19:30:07;;;;;;;88.40;46.05;;;;;;;8.00;58.25;98220.23;3977590;88;21679;-88
2022/04/23 19:36:09;;;;;;;69.50;38.98;;;;;;;7.73;58.83;98214.14;3971858;87;21097;-89
2022/04/23 19:42:11;;;;;;;74.20;37.42;;;;;;;7.52;59.57;98209.04;3978672;88;21163;-89
2022/04/23 19:48:13;;;;;;;68.95;37.63;;;;;;;7.38;60.15;98215.69;3975788;88;21152;-89
2022/04/23 19:54:15;;;;;;;76.15;38.63;;;;;;;7.31;61.15;98216.39;3973635;88;21119;-88
2022/04/23 20:00:17;;;;;;;75.80;41.50;;;;;;;7.02;61.11;98206.33;3968530;87;21092;-88
2022/04/23 20:06:19;;;;;;;74.58;42.43;;;;;;;6.80;61.70;98205.85;3976767;87;21161;-90
2022/04/23 20:12:21;;;;;;;88.60;46.02;;;;;;;6.79;62.35;98212.45;3995520;87;21072;-89
2022/04/23 20:18:22;;;;;;;84.92;44.38;;;;;;;6.66;62.86;98208.38;3977930;88;21156;-89
2022/04/23 20:24:24;;;;;;;87.35;43.30;;;;;;;6.54;63.82;98204.53;3977350;87;22011;-94
2022/04/23 20:30:28;;;;;;;77.40;39.53;;;;;;;6.56;63.97;98205.52;4002138;87;21101;-88
2022/04/23 20:42:51;;;;;;;68.28;38.65;;;;;;;6.07;63.46;98212.34;4000076;87;21122;-87
2022/04/23 20:48:53;;;;;;;71.77;38.58;;;;;;;5.97;65.72;98207.52;4001976;87;21159;-90
2022/04/23 20:54:54;;;;;;;75.25;41.75;;;;;;;5.92;65.35;98215.99;4001368;87;21170;-90
2022/04/23 21:00:55;;;;;;;75.78;41.30;;;;;;;5.80;66.06;98213.41;4002258;86;22258;-88
2022/04/23 21:06:57;;;;;;;70.03;37.00;;;;;;;5.56;65.90;98213.17;4004484;86;21434;-87
2022/04/23 21:12:58;;;;;;;72.97;38.28;;;;;;;5.41;66.97;98215.99;4002668;86;22351;-88
2022/04/23 21:19:00;;;;;;;61.83;34.90;;;;;;;5.32;67.48;98216.23;4044027;86;21077;-89
2022/04/23 21:25:02;;;;;;;82.20;41.37;;;;;;;5.25;68.37;98218.00;3991602;87;21108;-89
2022/04/23 21:31:04;;;;;;;66.30;35.58;;;;;;;5.20;68.21;98212.89;4049286;86;21112;-88
2022/04/23 21:37:06;;;;;;;75.75;38.53;;;;;;;5.11;68.05;98223.15;4003317;87;21081;-87
2022/04/23 21:49:27;;;;;;;84.22;41.18;;;;;;;4.83;68.96;98223.36;3999147;87;21097;-89
2022/04/23 21:55:29;;;;;;;81.85;41.88;;;;;;;4.80;69.30;98217.30;4019509;87;21807;-88
2022/04/23 22:01:30;;;;;;;87.57;44.27;;;;;;;4.52;69.28;98216.13;4026594;87;21635;-88
2022/04/23 22:07:32;;;;;;;84.90;41.70;;;;;;;4.35;69.94;98212.42;4058503;86;21150;-88
2022/04/23 22:13:33;;;;;;;98.45;48.00;;;;;;;4.31;70.63;98208.86;4078613;85;21019;-88
2022/04/23 22:19:37;;;;;;;106.40;53.58;;;;;;;4.18;70.27;98199.84;4050280;86;21075;-90
2022/04/23 22:25:38;;;;;;;95.03;48.42;;;;;;;4.00;70.79;98202.69;4039859;86;21125;-88
2022/04/23 22:31:40;;;;;;;94.28;49.23;;;;;;;3.97;71.83;98202.03;4028433;86;21259;-87
2022/04/23 22:37:41;;;;;;;81.32;40.90;;;;;;;3.91;71.65;98200.73;4040175;86;21033;-88
2022/04/23 22:43:42;;;;;;;84.42;46.50;;;;;;;3.92;72.98;98208.50;4035669;86;21555;-90
2022/04/23 22:49:44;;;;;;;105.85;51.48;;;;;;;4.06;72.59;98208.05;4006365;86;21085;-88
2022/04/23 22:55:45;;;;;;;94.80;51.75;;;;;;;3.78;71.91;98197.89;3990853;87;21695;-88
2022/04/23 23:01:47;;;;;;;86.42;45.60;;;;;;;3.55;72.24;98191.51;3995071;87;21105;-88
2022/04/23 23:07:48;;;;;;;97.10;51.55;;;;;;;3.52;73.49;98194.91;3987024;88;22094;-88
2022/04/23 23:13:49;;;;;;;95.22;52.38;;;;;;;3.50;73.21;98190.41;3987833;87;21105;-87
2022/04/23 23:19:51;;;;;;;95.72;52.55;;;;;;;3.36;73.30;98187.34;3991382;88;21782;-88
2022/04/23 23:25:52;;;;;;;96.42;50.20;;;;;;;3.23;73.75;98183.35;3992002;86;21106;-88
2022/04/23 23:31:53;;;;;;;88.00;48.90;;;;;;;3.12;74.16;98175.52;3984519;87;21091;-89
2022/04/23 23:37:55;;;;;;;82.15;45.03;;;;;;;3.00;74.11;98160.72;3987775;87;21606;-88
2022/04/23 23:43:56;;;;;;;85.67;46.25;;;;;;;3.02;75.48;98173.89;3972701;87;21549;-89
2022/04/23 23:49:57;;;;;;;90.45;48.10;;;;;;;3.22;76.07;98175.59;3983135;87;21077;-90
2022/04/23 23:55:59;;;;;;;96.42;48.10;;;;;;;3.20;75.48;98173.23;3981089;87;21084;-91
